Ontario, Wisconsin
Current Conditions -  °F | °C
As of 3:35 PM on Friday 31 Oct 2014 (Local Time) from KCMY Reporting Station
Scattered Clouds Scattered Clouds  
Wind Chill: 32°   Ceiling: Unl
Heat Index: 42°   Visibility: 10mi
Dew Point: 15°   Wind: 21mph
Humidity: 34%   Direction: 20°NNE
Pressure: 30.43"   Gusts: 25mph
Location:  43.73°N, 90.59°W
Report Text: KCMY 312035Z AUTO 02018G22KT 10SM SCT055 05/M10 A3043 RMK AO2 T00531096
Loading
Personal Weather Stations






























Interactive Weather Map
Tropical Storm Tracking
New forecast layout! Learn more

10-Day Weather Forecast

Advertisements
Track Severe Weather on mobile